Time;durP1;ratioP1;P1;durP2;ratioP2;P2;SDS_P1;SDS_P2;PMS_P1;PMS_P2;Temp;Humidity;BMP_temperature;BMP_pressure;BME280_temperature;BME280_humidity;BME280_pressure;Samples;Min_cycle;Max_cycle;Signal;HPM_P1;HPM_P2
2023/11/23 00:01:02;;;;;;;1.40;1.30;;;;;;;-141.23;100.00;62281.09;5042601;28;20112;-70
2023/11/23 00:03:27;;;;;;;1.43;1.33;;;;;;;-141.23;100.00;62281.09;5083147;27;20043;-70
2023/11/23 00:05:53;;;;;;;1.93;1.43;;;;;;;-141.23;100.00;62281.09;5062695;28;20051;-71
2023/11/23 00:08:20;;;;;;;2.03;1.30;;;;;;;-141.23;100.00;62281.09;5061048;28;20089;-71
2023/11/23 00:10:47;;;;;;;1.20;1.10;;;;;;;-141.23;100.00;62281.09;5046271;28;20047;-71
2023/11/23 00:13:13;;;;;;;2.50;1.23;;;;;;;-141.23;100.00;62281.09;5062904;28;20436;-73
2023/11/23 00:15:40;;;;;;;1.40;1.30;;;;;;;-141.23;100.00;62281.09;5046214;28;20039;-71
2023/11/23 00:18:06;;;;;;;3.87;1.67;;;;;;;-141.23;100.00;62281.09;5038836;28;20110;-71
2023/11/23 00:20:34;;;;;;;1.60;1.50;;;;;;;-141.23;100.00;62281.09;5006298;28;20196;-72
2023/11/23 00:23:00;;;;;;;3.83;1.83;;;;;;;-141.23;100.00;62281.09;5022575;28;20102;-71
2023/11/23 00:25:27;;;;;;;1.70;1.60;;;;;;;-141.23;100.00;62281.09;5022351;28;20048;-71
2023/11/23 00:27:53;;;;;;;1.60;1.50;;;;;;;-141.23;100.00;62281.09;5022267;28;20133;-71
2023/11/23 00:30:21;;;;;;;1.70;1.60;;;;;;;-141.23;100.00;62281.09;5022673;28;20101;-71
2023/11/23 00:32:50;;;;;;;2.10;1.70;;;;;;;-141.23;100.00;62281.09;5022389;28;20430;-70
2023/11/23 00:35:16;;;;;;;2.00;1.60;;;;;;;-141.23;100.00;62281.09;5015502;28;20061;-71
2023/11/23 00:37:44;;;;;;;1.97;1.80;;;;;;;-141.23;100.00;62281.09;5033159;28;20186;-71
2023/11/23 00:40:12;;;;;;;2.30;1.87;;;;;;;-141.23;100.00;62281.09;5056101;28;20072;-71
2023/11/23 00:42:40;;;;;;;3.87;2.13;;;;;;;-141.23;100.00;62281.09;5038810;28;20041;-71
2023/11/23 00:45:09;;;;;;;1.73;1.60;;;;;;;-141.23;100.00;62281.09;5006085;28;20052;-71
2023/11/23 00:47:36;;;;;;;3.03;2.10;;;;;;;-141.23;100.00;62281.09;5022148;28;20040;-70
2023/11/23 00:50:04;;;;;;;2.73;2.00;;;;;;;-141.23;100.00;62281.09;5075219;28;20092;-69
2023/11/23 00:52:30;;;;;;;3.50;2.00;;;;;;;-141.23;100.00;62281.09;5062161;28;20112;-70
2023/11/23 00:54:57;;;;;;;3.20;2.17;;;;;;;-141.23;100.00;62281.09;5062039;28;20519;-69
2023/11/23 00:57:23;;;;;;;2.50;1.97;;;;;;;-141.23;100.00;62281.09;5078441;28;20043;-70
2023/11/23 00:59:48;;;;;;;2.67;2.13;;;;;;;-141.23;100.00;62281.09;5057912;28;20054;-70
2023/11/23 01:02:15;;;;;;;2.03;1.77;;;;;;;-141.23;100.00;62281.09;5041322;28;20089;-70
2023/11/23 01:04:42;;;;;;;3.67;1.80;;;;;;;-141.23;100.00;62281.09;5041779;28;20158;-70
2023/11/23 01:07:09;;;;;;;3.57;1.70;;;;;;;-141.23;100.00;62281.09;5024498;28;20083;-69
2023/11/23 01:09:35;;;;;;;2.20;1.77;;;;;;;-141.23;100.00;62281.09;5021451;28;20114;-69
2023/11/23 01:12:01;;;;;;;1.83;1.40;;;;;;;-141.23;100.00;62281.09;5005248;28;20053;-69
2023/11/23 01:14:28;;;;;;;1.70;1.57;;;;;;;-141.23;100.00;62281.09;5005495;28;20110;-69
2023/11/23 01:16:53;;;;;;;1.60;1.40;;;;;;;-141.23;100.00;62281.09;5005275;28;20476;-69
2023/11/23 01:19:21;;;;;;;3.87;1.50;;;;;;;-141.23;100.00;62281.09;5051067;28;20049;-69
2023/11/23 01:21:47;;;;;;;1.30;1.20;;;;;;;-141.23;100.00;62281.09;5034414;28;20599;-72
2023/11/23 01:24:14;;;;;;;1.17;1.10;;;;;;;-141.23;100.00;62281.09;5018382;28;20052;-70
2023/11/23 01:26:40;;;;;;;1.30;1.20;;;;;;;-141.23;100.00;62281.09;5014158;28;20057;-70
2023/11/23 01:29:06;;;;;;;1.77;1.20;;;;;;;-141.23;100.00;62281.09;5017741;28;20165;-70
2023/11/23 01:31:32;;;;;;;1.37;1.20;;;;;;;-141.23;100.00;62281.09;5033506;28;20587;-70
2023/11/23 01:33:59;;;;;;;1.33;1.23;;;;;;;-141.23;100.00;62281.09;5014363;28;20092;-70
2023/11/23 01:36:27;;;;;;;1.20;1.10;;;;;;;-141.23;100.00;62281.09;4998066;28;20053;-70
2023/11/23 01:38:53;;;;;;;0.90;0.90;;;;;;;-141.23;100.00;62281.09;4998006;28;20437;-69
2023/11/23 01:41:19;;;;;;;1.13;1.07;;;;;;;-141.23;100.00;62281.09;4998141;28;20076;-69
2023/11/23 01:43:46;;;;;;;1.37;1.27;;;;;;;-141.23;100.00;62281.09;4998110;28;20041;-68
2023/11/23 01:46:13;;;;;;;1.20;1.10;;;;;;;-141.23;100.00;62281.09;4998258;28;20076;-68
2023/11/23 01:48:39;;;;;;;1.23;1.10;;;;;;;-141.23;100.00;62281.09;5014394;28;20063;-68
2023/11/23 01:51:08;;;;;;;2.00;1.33;;;;;;;-141.23;100.00;62281.09;5030363;28;20516;-68
2023/11/23 01:53:34;;;;;;;7.97;1.30;;;;;;;-141.23;100.00;62281.09;5013832;28;20049;-68
2023/11/23 01:56:00;;;;;;;2.50;1.20;;;;;;;-141.23;100.00;62281.09;4997879;28;20045;-68
2023/11/23 01:58:28;;;;;;;1.40;1.30;;;;;;;-141.23;100.00;62281.09;5001440;28;20057;-69
2023/11/23 02:00:54;;;;;;;3.23;1.57;;;;;;;-141.23;100.00;62281.09;5016537;28;20499;-71
2023/11/23 02:03:24;;;;;;;1.77;1.43;;;;;;;-141.23;100.00;62281.09;5018791;28;20041;-69
2023/11/23 02:05:50;;;;;;;1.73;1.30;;;;;;;-141.23;100.00;62281.09;5053847;28;20558;-70
2023/11/23 02:08:16;;;;;;;1.20;1.13;;;;;;;-141.23;100.00;62281.09;5033948;28;20080;-69
2023/11/23 02:10:42;;;;;;;2.90;1.17;;;;;;;-141.23;100.00;62281.09;5024957;28;20155;-69
2023/11/23 02:13:09;;;;;;;1.93;1.20;;;;;;;-141.23;100.00;62281.09;5055813;28;20055;-68
2023/11/23 02:15:35;;;;;;;2.07;1.30;;;;;;;-141.23;100.00;62281.09;5040378;28;20122;-71
2023/11/23 02:18:03;;;;;;;1.57;1.47;;;;;;;-141.23;100.00;62281.09;5057058;28;20458;-70
2023/11/23 02:20:31;;;;;;;2.40;1.60;;;;;;;-141.23;100.00;62281.09;5017044;28;20106;-69
2023/11/23 02:22:59;;;;;;;2.00;1.40;;;;;;;-141.23;100.00;62281.09;5033343;28;20045;-69
2023/11/23 02:25:26;;;;;;;2.10;1.27;;;;;;;-141.23;100.00;62281.09;5049640;28;20064;-68
2023/11/23 02:27:52;;;;;;;1.50;1.40;;;;;;;-141.23;100.00;62281.09;5029711;28;20053;-69
2023/11/23 02:30:21;;;;;;;1.60;1.50;;;;;;;-141.23;100.00;62281.09;4963243;28;20065;-69
2023/11/23 02:32:48;;;;;;;2.10;1.70;;;;;;;-141.23;100.00;62281.09;4958468;28;20066;-70
2023/11/23 02:35:19;;;;;;;1.53;1.43;;;;;;;-141.23;100.00;62281.09;4954967;28;20060;-69
2023/11/23 02:37:45;;;;;;;1.60;1.50;;;;;;;-141.23;100.00;62281.09;4955343;28;20047;-68
2023/11/23 02:40:11;;;;;;;1.60;1.50;;;;;;;-141.23;100.00;62281.09;4939037;28;20089;-71
2023/11/23 02:42:38;;;;;;;1.40;1.30;;;;;;;-141.23;100.00;62281.09;4955179;28;20057;-68
2023/11/23 02:45:07;;;;;;;1.47;1.23;;;;;;;-141.23;100.00;62281.09;4920643;29;20511;-70
2023/11/23 02:47:34;;;;;;;1.40;1.30;;;;;;;-141.23;100.00;62281.09;4920530;29;20058;-70
2023/11/23 02:50:00;;;;;;;1.30;1.20;;;;;;;-141.23;100.00;62281.09;4951654;29;20095;-70
2023/11/23 02:52:30;;;;;;;1.37;1.20;;;;;;;-141.23;100.00;62281.09;4935617;29;20047;-68
2023/11/23 02:54:56;;;;;;;1.30;1.20;;;;;;;-141.23;100.00;62281.09;4951697;29;20122;-69
2023/11/23 02:57:22;;;;;;;1.50;1.20;;;;;;;-141.23;100.00;62281.09;4935580;29;20094;-73
2023/11/23 02:59:49;;;;;;;1.63;1.37;;;;;;;-141.23;100.00;62281.09;4988208;28;20144;-70
2023/11/23 03:02:15;;;;;;;1.10;1.10;;;;;;;-141.23;100.00;62281.09;4975866;28;20138;-69
2023/11/23 03:04:41;;;;;;;1.43;1.20;;;;;;;-141.23;100.00;62281.09;5027744;28;20610;-69
2023/11/23 03:07:08;;;;;;;1.30;1.20;;;;;;;-141.23;100.00;62281.09;5046421;28;20057;-69
2023/11/23 03:09:35;;;;;;;1.30;1.20;;;;;;;-141.23;100.00;62281.09;5045784;28;20150;-69
2023/11/23 03:12:01;;;;;;;1.77;1.53;;;;;;;-141.23;100.00;62281.09;5054151;28;20048;-69
2023/11/23 03:14:27;;;;;;;1.30;1.20;;;;;;;-141.23;100.00;62281.09;5019829;28;20049;-69
2023/11/23 03:16:53;;;;;;;1.37;1.10;;;;;;;-141.23;100.00;62281.09;5087453;28;20048;-71
2023/11/23 03:19:19;;;;;;;1.63;1.20;;;;;;;-141.23;100.00;62281.09;5096703;28;20058;-68
2023/11/23 03:21:45;;;;;;;1.20;1.10;;;;;;;-141.23;100.00;62281.09;5079474;28;20039;-68
2023/11/23 03:24:11;;;;;;;1.37;1.27;;;;;;;-141.23;100.00;62281.09;5113378;28;20502;-68
2023/11/23 03:26:38;;;;;;;1.37;1.27;;;;;;;-141.23;100.00;62281.09;5081730;27;20050;-69
2023/11/23 03:29:04;;;;;;;2.23;1.50;;;;;;;-141.23;100.00;62281.09;5096563;28;20063;-69
2023/11/23 03:31:30;;;;;;;1.00;1.00;;;;;;;-141.23;100.00;62281.09;5082748;27;20472;-70
2023/11/23 03:33:56;;;;;;;1.10;1.00;;;;;;;-141.23;100.00;62281.09;5103626;27;20058;-71
2023/11/23 03:36:22;;;;;;;1.27;1.17;;;;;;;-141.23;100.00;62281.09;5103853;27;20047;-70
2023/11/23 03:38:48;;;;;;;1.30;1.20;;;;;;;-141.23;100.00;62281.09;5103280;27;20043;-70
2023/11/23 03:41:14;;;;;;;1.43;1.30;;;;;;;-141.23;100.00;62281.09;5103300;27;20149;-71
2023/11/23 03:43:40;;;;;;;1.40;1.30;;;;;;;-141.23;100.00;62281.09;5103062;27;20057;-71
2023/11/23 03:46:11;;;;;;;6.67;1.20;;;;;;;-141.23;100.00;62281.09;5105079;27;20042;-71
2023/11/23 03:48:37;;;;;;;2.43;1.20;;;;;;;-141.23;100.00;62281.09;5120193;27;20042;-72
2023/11/23 03:51:03;;;;;;;1.53;1.17;;;;;;;-141.23;100.00;62281.09;5086059;27;20073;-69
2023/11/23 03:53:29;;;;;;;1.87;1.30;;;;;;;-141.23;100.00;62281.09;5102914;27;20048;-69
2023/11/23 03:55:56;;;;;;;1.27;1.17;;;;;;;-141.23;100.00;62281.09;5103410;27;20106;-70
2023/11/23 03:58:22;;;;;;;1.30;1.20;;;;;;;-141.23;100.00;62281.09;5137687;27;20463;-71
2023/11/23 04:00:50;;;;;;;1.43;1.27;;;;;;;-141.23;100.00;62281.09;5151434;27;20042;-70
2023/11/23 04:03:16;;;;;;;1.77;1.40;;;;;;;-141.23;100.00;62281.09;5138272;27;20438;-69
2023/11/23 04:05:41;;;;;;;1.30;1.20;;;;;;;-141.23;100.00;62281.09;5104053;27;20133;-70
2023/11/23 04:08:07;;;;;;;1.30;1.20;;;;;;;-141.23;100.00;62281.09;5121166;27;20395;-71
2023/11/23 04:10:33;;;;;;;1.23;1.13;;;;;;;-141.23;100.00;62281.09;5137879;27;20047;-69
2023/11/23 04:12:59;;;;;;;1.30;1.20;;;;;;;-141.23;100.00;62281.09;5104024;27;20038;-69
2023/11/23 04:15:25;;;;;;;2.67;1.33;;;;;;;-141.23;100.00;62281.09;5138158;27;20035;-69
2023/11/23 04:17:51;;;;;;;1.10;1.10;;;;;;;-141.23;100.00;62281.09;5138195;27;20156;-69
2023/11/23 04:20:19;;;;;;;1.43;1.20;;;;;;;-141.23;100.00;62281.09;5120517;27;20047;-70
2023/11/23 04:22:45;;;;;;;1.40;1.30;;;;;;;-141.23;100.00;62281.09;5120957;27;20071;-71
2023/11/23 04:25:10;;;;;;;2.30;1.10;;;;;;;-141.23;100.00;62281.09;5120465;27;20074;-70
2023/11/23 04:27:36;;;;;;;1.63;1.20;;;;;;;-141.23;100.00;62281.09;5120281;27;20043;-70
2023/11/23 04:30:04;;;;;;;1.40;1.30;;;;;;;-141.23;100.00;62281.09;5120497;27;20443;-69
2023/11/23 04:32:33;;;;;;;1.67;1.58;;;;;;;-141.23;100.00;62281.09;5105038;27;20438;-68
2023/11/23 04:34:59;;;;;;;2.07;1.40;;;;;;;-141.23;100.00;62281.09;5120433;27;20098;-69
2023/11/23 04:37:26;;;;;;;8.60;2.20;;;;;;;-141.23;100.00;62281.09;5102213;27;20074;-68
2023/11/23 04:39:52;;;;;;;1.40;1.30;;;;;;;-141.23;100.00;62281.09;5154804;27;20099;-68
2023/11/23 04:42:19;;;;;;;1.90;1.50;;;;;;;-141.23;100.00;62281.09;5120313;27;20038;-69
2023/11/23 04:44:45;;;;;;;1.53;1.40;;;;;;;-141.23;100.00;62281.09;5103569;27;20041;-69
2023/11/23 04:47:11;;;;;;;1.20;1.10;;;;;;;-141.23;100.00;62281.09;5137654;27;20035;-68
2023/11/23 04:49:38;;;;;;;2.33;2.10;;;;;;;-141.23;100.00;62281.09;5137442;27;20398;-70
2023/11/23 04:52:05;;;;;;;1.40;1.20;;;;;;;-141.23;100.00;62281.09;5154663;27;20450;-72
2023/11/23 04:54:31;;;;;;;1.60;1.50;;;;;;;-141.23;100.00;62281.09;5137205;27;20133;-71
2023/11/23 04:56:57;;;;;;;1.63;1.50;;;;;;;-141.23;100.00;62281.09;5120948;27;20188;-72
2023/11/23 04:59:23;;;;;;;3.53;1.40;;;;;;;-141.23;100.00;62281.09;5138677;27;20042;-74
2023/11/23 05:01:50;;;;;;;1.47;1.37;;;;;;;-141.23;100.00;62281.09;5125030;27;20065;-70
2023/11/23 05:04:16;;;;;;;1.40;1.30;;;;;;;-141.23;100.00;62281.09;5123087;27;20077;-71
2023/11/23 05:06:42;;;;;;;1.67;1.57;;;;;;;-141.23;100.00;62281.09;5126636;27;20115;-72
2023/11/23 05:09:08;;;;;;;2.27;1.57;;;;;;;-141.23;100.00;62281.09;5143424;27;20039;-73
2023/11/23 05:11:33;;;;;;;1.83;1.50;;;;;;;-141.23;100.00;62281.09;5091849;27;20031;-72
2023/11/23 05:14:09;;;;;;;8.87;1.50;;;;;;;-141.23;100.00;62281.09;5089905;27;20039;-68
2023/11/23 05:16:35;;;;;;;3.77;1.83;;;;;;;-141.23;100.00;62281.09;5085276;28;20058;-72
2023/11/23 05:19:04;;;;;;;2.23;1.70;;;;;;;-141.23;100.00;62281.09;5081355;28;20044;-70
2023/11/23 05:21:30;;;;;;;2.50;1.40;;;;;;;-141.23;100.00;62281.09;5063437;28;20043;-68
2023/11/23 05:23:56;;;;;;;1.70;1.60;;;;;;;-141.23;100.00;62281.09;5062138;28;20035;-72
2023/11/23 05:26:22;;;;;;;1.83;1.43;;;;;;;-141.23;100.00;62281.09;5095287;28;20062;-71
2023/11/23 05:28:47;;;;;;;1.63;1.53;;;;;;;-141.23;100.00;62281.09;5097652;28;20052;-71
2023/11/23 05:31:14;;;;;;;1.93;1.60;;;;;;;-141.23;100.00;62281.09;5099455;28;20047;-71
2023/11/23 05:33:40;;;;;;;2.07;1.50;;;;;;;-141.23;100.00;62281.09;5081867;28;20105;-72
2023/11/23 05:36:09;;;;;;;1.80;1.50;;;;;;;-141.23;100.00;62281.09;5084427;28;20113;-72
2023/11/23 05:38:36;;;;;;;3.13;1.80;;;;;;;-141.23;100.00;62281.09;5084670;28;20039;-72
2023/11/23 05:41:02;;;;;;;3.43;1.50;;;;;;;-141.23;100.00;62281.09;5044442;28;20181;-71
2023/11/23 05:43:28;;;;;;;2.20;2.00;;;;;;;-141.23;100.00;62281.09;5056872;28;20419;-70
2023/11/23 05:45:56;;;;;;;1.63;1.53;;;;;;;-141.23;100.00;62281.09;5056434;28;20131;-72
2023/11/23 05:48:22;;;;;;;2.47;1.50;;;;;;;-141.23;100.00;62281.09;5072505;28;20060;-71
2023/11/23 05:50:48;;;;;;;1.60;1.50;;;;;;;-141.23;100.00;62281.09;5078204;28;20108;-71
2023/11/23 05:53:14;;;;;;;2.00;1.37;;;;;;;-141.23;100.00;62281.09;5079188;28;20028;-70
2023/11/23 05:55:39;;;;;;;1.43;1.33;;;;;;;-141.23;100.00;62281.09;5102776;27;20559;-71
2023/11/23 05:58:05;;;;;;;5.90;1.43;;;;;;;-141.23;100.00;62281.09;5101910;27;20051;-74
2023/11/23 06:00:32;;;;;;;5.40;1.50;;;;;;;-141.23;100.00;62281.09;5069052;27;20069;-71
2023/11/23 06:03:03;;;;;;;1.73;1.63;;;;;;;-141.23;100.00;62281.09;5067479;27;20083;-72
2023/11/23 06:05:28;;;;;;;5.27;1.60;;;;;;;-141.23;100.00;62281.09;5102603;27;20039;-72
2023/11/23 06:07:55;;;;;;;2.07;1.73;;;;;;;-141.23;100.00;62281.09;5103362;27;20043;-70
2023/11/23 06:10:20;;;;;;;4.30;1.70;;;;;;;-141.23;100.00;62281.09;5100162;27;20082;-69
2023/11/23 06:12:46;;;;;;;1.70;1.60;;;;;;;-141.23;100.00;62281.09;5100855;27;20074;-73
2023/11/23 06:15:13;;;;;;;3.37;1.50;;;;;;;-141.23;100.00;62281.09;5080761;27;20482;-75
2023/11/23 06:17:39;;;;;;;1.47;1.37;;;;;;;-141.23;100.00;62281.09;5079541;27;20047;-73
2023/11/23 06:20:08;;;;;;;1.60;1.50;;;;;;;-141.23;100.00;62281.09;5079997;27;20054;-74
2023/11/23 06:22:34;;;;;;;1.63;1.37;;;;;;;-141.23;100.00;62281.09;5062944;27;20042;-72
2023/11/23 06:25:00;;;;;;;4.23;1.90;;;;;;;-141.23;100.00;62281.09;5099151;27;20050;-74
2023/11/23 06:27:26;;;;;;;6.03;1.40;;;;;;;-141.23;100.00;62281.09;5117729;27;20466;-69
2023/11/23 06:29:52;;;;;;;1.43;1.20;;;;;;;-141.23;100.00;62281.09;5134827;27;20049;-71
2023/11/23 06:32:18;;;;;;;1.43;1.33;;;;;;;-141.23;100.00;62281.09;5100531;27;20035;-72
2023/11/23 06:34:45;;;;;;;1.63;1.23;;;;;;;-141.23;100.00;62281.09;5117853;27;20462;-70
2023/11/23 06:37:11;;;;;;;2.30;1.57;;;;;;;-141.23;100.00;62281.09;5117589;27;20546;-73
2023/11/23 06:39:37;;;;;;;7.83;1.30;;;;;;;-141.23;100.00;62281.09;5100347;27;20084;-74
2023/11/23 06:42:04;;;;;;;2.47;1.50;;;;;;;-141.23;100.00;62281.09;5103705;27;20034;-72
2023/11/23 06:44:30;;;;;;;2.50;1.43;;;;;;;-141.23;100.00;62281.09;5098689;27;20489;-71
2023/11/23 06:46:56;;;;;;;1.47;1.37;;;;;;;-141.23;100.00;62281.09;5132864;27;20046;-72
2023/11/23 06:49:22;;;;;;;1.73;1.40;;;;;;;-141.23;100.00;62281.09;5099415;27;20045;-71
2023/11/23 06:51:49;;;;;;;3.67;1.53;;;;;;;-141.23;100.00;62281.09;5115708;27;20046;-70
2023/11/23 06:54:15;;;;;;;2.60;1.57;;;;;;;-141.23;100.00;62281.09;5093326;28;20062;-75
2023/11/23 06:56:41;;;;;;;2.30;1.63;;;;;;;-141.23;100.00;62281.09;5072646;28;20059;-75
2023/11/23 06:59:08;;;;;;;2.77;2.00;;;;;;;-141.23;100.00;62281.09;5059033;28;20055;-75
2023/11/23 07:01:34;;;;;;;1.70;1.60;;;;;;;-141.23;100.00;62281.09;5061126;28;20360;-76
2023/11/23 07:04:01;;;;;;;1.47;1.37;;;;;;;-141.23;100.00;62281.09;5080312;28;20074;-77
2023/11/23 07:06:26;;;;;;;1.53;1.40;;;;;;;-141.23;100.00;62281.09;5063049;28;20071;-74
2023/11/23 07:08:53;;;;;;;1.77;1.67;;;;;;;-141.23;100.00;62281.09;5062678;28;20104;-71
2023/11/23 07:11:19;;;;;;;2.80;1.40;;;;;;;-141.23;100.00;62281.09;5062742;28;20039;-77
2023/11/23 07:13:47;;;;;;;1.90;1.50;;;;;;;-141.23;100.00;62281.09;5063292;28;20138;-75
2023/11/23 07:16:14;;;;;;;5.33;1.73;;;;;;;-141.23;100.00;62281.09;5075819;28;20040;-74
2023/11/23 07:18:40;;;;;;;1.40;1.30;;;;;;;-141.23;100.00;62281.09;5042410;28;20494;-74
2023/11/23 07:21:06;;;;;;;1.50;1.40;;;;;;;-141.23;100.00;62281.09;5077177;28;20085;-75
2023/11/23 07:23:32;;;;;;;2.03;1.30;;;;;;;-141.23;100.00;62281.09;5061301;28;20050;-71
2023/11/23 07:25:58;;;;;;;1.80;1.30;;;;;;;-141.23;100.00;62281.09;5058848;27;20142;-72
2023/11/23 07:28:26;;;;;;;1.90;1.30;;;;;;;-141.23;100.00;62281.09;5082289;27;20051;-73
2023/11/23 07:30:56;;;;;;;2.40;1.23;;;;;;;-141.23;100.00;62281.09;5099628;27;20800;-74
2023/11/23 07:33:25;;;;;;;2.27;1.60;;;;;;;-141.23;100.00;62281.09;5116597;27;20041;-70
2023/11/23 07:35:51;;;;;;;1.77;1.50;;;;;;;-141.23;100.00;62281.09;5106490;27;20044;-72
2023/11/23 07:38:20;;;;;;;1.60;1.50;;;;;;;-141.23;100.00;62281.09;5114938;27;20039;-66
2023/11/23 07:40:46;;;;;;;3.97;1.43;;;;;;;-141.23;100.00;62281.09;5080469;27;20043;-72
2023/11/23 07:43:12;;;;;;;2.47;1.60;;;;;;;-141.23;100.00;62281.09;5078779;27;20479;-74
2023/11/23 07:45:38;;;;;;;6.30;1.47;;;;;;;-141.23;100.00;62281.09;5064788;27;20031;-74
2023/11/23 07:48:08;;;;;;;1.97;1.50;;;;;;;-141.23;100.00;62281.09;5073015;27;20039;-73
2023/11/23 07:50:39;;;;;;;1.80;1.53;;;;;;;-141.23;100.00;62281.09;5080350;27;20143;-76
2023/11/23 07:53:06;;;;;;;4.00;1.50;;;;;;;-141.23;100.00;62281.09;5098156;27;20089;-75
2023/11/23 07:55:33;;;;;;;3.40;1.50;;;;;;;-141.23;100.00;62281.09;5064613;27;20550;-71
2023/11/23 07:57:59;;;;;;;1.50;1.40;;;;;;;-141.23;100.00;62281.09;5080886;27;20059;-74
2023/11/23 08:00:25;;;;;;;2.33;1.63;;;;;;;-141.23;100.00;62281.09;5078576;27;20035;-71
2023/11/23 08:02:54;;;;;;;1.50;1.40;;;;;;;-141.23;100.00;62281.09;5064086;27;20070;-71
2023/11/23 08:05:21;;;;;;;1.43;1.33;;;;;;;-141.23;100.00;62281.09;5064598;27;20147;-70
2023/11/23 08:07:50;;;;;;;2.40;1.40;;;;;;;-141.23;100.00;62281.09;5070249;27;20050;-75
2023/11/23 08:10:16;;;;;;;2.00;1.63;;;;;;;-141.23;100.00;62281.09;5107119;27;20134;-75
2023/11/23 08:12:46;;;;;;;3.43;1.33;;;;;;;-141.23;100.00;62281.09;5104711;27;20063;-74
2023/11/23 08:15:12;;;;;;;3.83;1.57;;;;;;;-141.23;100.00;62281.09;5102112;27;20066;-73
2023/11/23 08:17:39;;;;;;;6.57;1.83;;;;;;;-141.23;100.00;62281.09;5101599;27;20042;-73
2023/11/23 08:20:09;;;;;;;4.83;1.77;;;;;;;-141.23;100.00;62281.09;5102381;27;20034;-74
2023/11/23 08:22:36;;;;;;;1.80;1.50;;;;;;;-141.23;100.00;62281.09;5118677;27;20035;-74
2023/11/23 08:25:02;;;;;;;2.60;1.80;;;;;;;-141.23;100.00;62281.09;5145146;27;20046;-74
2023/11/23 08:27:31;;;;;;;5.10;1.40;;;;;;;-141.23;100.00;62281.09;5103080;27;20416;-73
2023/11/23 08:29:57;;;;;;;1.70;1.60;;;;;;;-141.23;100.00;62281.09;5114758;27;20191;-72
2023/11/23 08:32:23;;;;;;;5.70;1.60;;;;;;;-141.23;100.00;62281.09;5099221;27;20882;-74
2023/11/23 08:34:49;;;;;;;4.07;1.67;;;;;;;-141.23;100.00;62281.09;5118376;27;20073;-75
2023/11/23 08:37:19;;;;;;;3.90;1.50;;;;;;;-141.23;100.00;62281.09;5117844;27;20043;-76
2023/11/23 08:39:46;;;;;;;2.15;1.50;;;;;;;-141.23;100.00;62281.09;5126811;27;20041;-74
2023/11/23 08:42:14;;;;;;;2.53;1.90;;;;;;;-141.23;100.00;62281.09;5116199;27;20193;-74
2023/11/23 08:44:40;;;;;;;5.87;1.80;;;;;;;-141.23;100.00;62281.09;5101853;27;20096;-73
2023/11/23 08:47:06;;;;;;;1.93;1.50;;;;;;;-141.23;100.00;62281.09;5118826;27;20037;-73
2023/11/23 08:49:34;;;;;;;2.27;1.47;;;;;;;-141.23;100.00;62281.09;5100024;27;20043;-74
2023/11/23 08:52:00;;;;;;;4.10;1.80;;;;;;;-141.23;100.00;62281.09;5101463;27;20374;-71
2023/11/23 08:54:25;;;;;;;5.83;2.00;;;;;;;-141.23;100.00;62281.09;5101143;27;20044;-73
2023/11/23 08:56:52;;;;;;;2.23;1.60;;;;;;;-141.23;100.00;62281.09;5125688;27;20054;-74
2023/11/23 08:59:19;;;;;;;1.90;1.70;;;;;;;-141.23;100.00;62281.09;5110430;27;20034;-73
2023/11/23 09:01:47;;;;;;;1.97;1.60;;;;;;;-141.23;100.00;62281.09;5101537;27;20046;-73
2023/11/23 09:04:13;;;;;;;1.80;1.50;;;;;;;-141.23;100.00;62281.09;5118261;27;20496;-73
2023/11/23 09:06:40;;;;;;;2.13;1.60;;;;;;;-141.23;100.00;62281.09;5114858;27;20042;-73
2023/11/23 09:09:07;;;;;;;5.13;2.10;;;;;;;-141.23;100.00;62281.09;5093164;27;20320;-73
2023/11/23 09:11:34;;;;;;;11.10;1.83;;;;;;;-141.23;100.00;62281.09;5100483;27;20474;-73
2023/11/23 09:14:02;;;;;;;2.27;1.63;;;;;;;-141.23;100.00;62281.09;5098035;27;20039;-72
2023/11/23 09:16:29;;;;;;;4.40;1.67;;;;;;;-141.23;100.00;62281.09;5101777;27;20043;-72
2023/11/23 09:18:58;;;;;;;4.07;1.90;;;;;;;-141.23;100.00;62281.09;5101633;27;20438;-71
2023/11/23 09:21:27;;;;;;;3.08;2.33;;;;;;;-141.23;100.00;62281.09;5073216;28;20146;-70
2023/11/23 09:23:53;;;;;;;3.60;2.20;;;;;;;-141.23;100.00;62281.09;5032915;28;20040;-70
2023/11/23 09:26:20;;;;;;;17.07;1.97;;;;;;;-141.23;100.00;62281.09;5050246;28;20040;-70
2023/11/23 09:28:47;;;;;;;2.63;1.67;;;;;;;-141.23;100.00;62281.09;5000222;28;20133;-70
2023/11/23 09:31:13;;;;;;;4.80;1.60;;;;;;;-141.23;100.00;62281.09;5016572;28;20090;-70
2023/11/23 09:33:39;;;;;;;5.47;1.63;;;;;;;-141.23;100.00;62281.09;5032874;28;20037;-71
2023/11/23 09:36:06;;;;;;;6.60;2.03;;;;;;;-141.23;100.00;62281.09;5016810;28;20510;-71
2023/11/23 09:38:35;;;;;;;3.03;1.70;;;;;;;-141.23;100.00;62281.09;5048523;28;20060;-70
2023/11/23 09:41:04;;;;;;;2.00;1.33;;;;;;;-141.23;100.00;62281.09;5017164;28;20048;-72
2023/11/23 09:43:30;;;;;;;2.63;1.67;;;;;;;-141.23;100.00;62281.09;5016942;28;20052;-72
2023/11/23 09:45:56;;;;;;;9.17;1.70;;;;;;;-141.23;100.00;62281.09;5016177;28;20094;-72
2023/11/23 09:48:23;;;;;;;4.03;1.97;;;;;;;-141.23;100.00;62281.09;5032854;28;20106;-70
2023/11/23 09:50:49;;;;;;;1.90;1.40;;;;;;;-141.23;100.00;62281.09;5032634;28;20175;-70
2023/11/23 09:53:15;;;;;;;2.40;1.77;;;;;;;-141.23;100.00;62281.09;5016532;28;20055;-70
2023/11/23 09:55:42;;;;;;;3.23;1.83;;;;;;;-141.23;100.00;62281.09;5016197;28;20055;-71
2023/11/23 09:58:08;;;;;;;3.17;2.00;;;;;;;-141.23;100.00;62281.09;5016119;28;20052;-70
2023/11/23 10:00:35;;;;;;;2.40;1.73;;;;;;;-141.23;100.00;62281.09;4990467;28;20742;-70
2023/11/23 10:03:06;;;;;;;2.77;1.80;;;;;;;-141.23;100.00;62281.09;4958654;28;20092;-71
2023/11/23 10:05:33;;;;;;;2.40;1.93;;;;;;;-141.23;100.00;62281.09;5017725;28;20075;-71
2023/11/23 10:07:59;;;;;;;7.23;2.20;;;;;;;-141.23;100.00;62281.09;5056441;28;20114;-71
2023/11/23 10:10:27;;;;;;;3.60;1.97;;;;;;;-141.23;100.00;62281.09;5072217;28;20486;-71
2023/11/23 10:12:54;;;;;;;4.20;2.50;;;;;;;-141.23;100.00;62281.09;5055480;28;20039;-70
2023/11/23 10:15:21;;;;;;;2.87;2.10;;;;;;;-141.23;100.00;62281.09;5056334;28;20043;-70
2023/11/23 10:17:48;;;;;;;8.23;2.40;;;;;;;-141.23;100.00;62281.09;5056162;28;20079;-70
2023/11/23 10:20:17;;;;;;;1.80;1.40;;;;;;;-141.23;100.00;62281.09;5072300;28;20209;-72
2023/11/23 10:22:44;;;;;;;2.90;2.00;;;;;;;-141.23;100.00;62281.09;5056413;28;20098;-71
2023/11/23 10:25:35;;;;;;;3.80;2.13;;;;;;;-141.23;100.00;62281.09;5053760;28;20040;-71
2023/11/23 10:28:06;;;;;;;3.00;2.10;;;;;;;-141.23;100.00;62281.09;5053279;28;20171;-76
2023/11/23 10:30:36;;;;;;;5.22;2.25;;;;;;;-141.23;100.00;62281.09;5038152;27;20079;-73
2023/11/23 10:33:04;;;;;;;2.30;1.60;;;;;;;-141.23;100.00;62281.09;5061868;27;20051;-71
2023/11/23 10:35:52;;;;;;;3.40;2.10;;;;;;;-141.23;100.00;62281.09;5061747;27;20051;-74
2023/11/23 10:38:22;;;;;;;2.43;1.70;;;;;;;-141.23;100.00;62281.09;5078368;27;20115;-75
2023/11/23 10:40:48;;;;;;;2.60;1.73;;;;;;;-141.23;100.00;62281.09;5061684;27;20540;-74
2023/11/23 10:43:17;;;;;;;5.33;2.87;;;;;;;-141.23;100.00;62281.09;5062255;28;20051;-76
2023/11/23 10:45:44;;;;;;;3.37;2.57;;;;;;;-141.23;100.00;62281.09;5062708;27;20043;-76
2023/11/23 10:48:14;;;;;;;2.47;1.60;;;;;;;-141.23;100.00;62281.09;5061301;27;20043;-76
2023/11/23 10:50:45;;;;;;;3.33;2.10;;;;;;;-141.23;100.00;62281.09;5078809;28;20080;-73
2023/11/23 10:53:11;;;;;;;8.93;2.30;;;;;;;-141.23;100.00;62281.09;5061930;27;20478;-71
2023/11/23 10:55:37;;;;;;;3.43;2.03;;;;;;;-141.23;100.00;62281.09;5061872;28;20069;-69
2023/11/23 10:58:15;;;;;;;3.33;1.90;;;;;;;-141.23;100.00;62281.09;5078578;28;20039;-71
2023/11/23 11:00:42;;;;;;;5.53;2.07;;;;;;;-141.23;100.00;62281.09;5078070;28;20074;-76
2023/11/23 11:03:11;;;;;;;5.83;2.00;;;;;;;-141.23;100.00;62281.09;5061669;28;20047;-76
2023/11/23 11:05:47;;;;;;;1.40;1.30;;;;;;;-141.23;100.00;62281.09;5062013;28;20077;-76
2023/11/23 11:08:20;;;;;;;3.20;2.00;;;;;;;-141.23;100.00;62281.09;5117633;27;20066;-76